sensor_id;sensor_type;location;lat;lon;timestamp;temperature;humidity
56771;DHT22;42641;59.794;17.616;2024-03-07T00:00:29;-1.90;99.90
56771;DHT22;42641;59.794;17.616;2024-03-07T00:02:56;-1.90;99.90
56771;DHT22;42641;59.794;17.616;2024-03-07T00:05:23;-1.90;99.90
56771;DHT22;42641;59.794;17.616;2024-03-07T00:07:53;-1.90;99.90
56771;DHT22;42641;59.794;17.616;2024-03-07T00:10:21;-1.90;99.90
56771;DHT22;42641;59.794;17.616;2024-03-07T00:12:47;-1.90;99.90
56771;DHT22;42641;59.794;17.616;2024-03-07T00:15:14;-1.90;99.90
56771;DHT22;42641;59.794;17.616;2024-03-07T00:17:42;-1.90;99.90
56771;DHT22;42641;59.794;17.616;2024-03-07T00:20:09;-1.90;99.90
56771;DHT22;42641;59.794;17.616;2024-03-07T00:22:43;-1.90;99.90
56771;DHT22;42641;59.794;17.616;2024-03-07T00:25:10;-1.90;99.90
56771;DHT22;42641;59.794;17.616;2024-03-07T00:27:37;-2.00;99.90
56771;DHT22;42641;59.794;17.616;2024-03-07T00:30:07;-2.00;99.90
56771;DHT22;42641;59.794;17.616;2024-03-07T00:32:35;-2.00;99.90
56771;DHT22;42641;59.794;17.616;2024-03-07T00:35:06;-2.00;99.90
56771;DHT22;42641;59.794;17.616;2024-03-07T00:37:35;-2.10;99.90
56771;DHT22;42641;59.794;17.616;2024-03-07T00:40:02;-2.20;99.90
56771;DHT22;42641;59.794;17.616;2024-03-07T00:42:29;-2.20;99.90
56771;DHT22;42641;59.794;17.616;2024-03-07T00:44:56;-2.20;99.90
56771;DHT22;42641;59.794;17.616;2024-03-07T00:47:22;-2.20;99.90
56771;DHT22;42641;59.794;17.616;2024-03-07T00:49:49;-2.20;99.90
56771;DHT22;42641;59.794;17.616;2024-03-07T00:52:15;-2.20;99.90
56771;DHT22;42641;59.794;17.616;2024-03-07T00:54:42;-2.20;99.90
56771;DHT22;42641;59.794;17.616;2024-03-07T00:57:09;-2.20;99.90
56771;DHT22;42641;59.794;17.616;2024-03-07T00:59:35;-2.20;99.90
56771;DHT22;42641;59.794;17.616;2024-03-07T01:02:02;-2.20;99.90
56771;DHT22;42641;59.794;17.616;2024-03-07T01:04:28;-2.20;99.90
56771;DHT22;42641;59.794;17.616;2024-03-07T01:06:57;-2.20;99.90
56771;DHT22;42641;59.794;17.616;2024-03-07T01:09:25;-2.20;99.90
56771;DHT22;42641;59.794;17.616;2024-03-07T01:11:54;-2.20;99.90
56771;DHT22;42641;59.794;17.616;2024-03-07T01:14:22;-2.20;99.90
56771;DHT22;42641;59.794;17.616;2024-03-07T01:16:48;-2.20;99.90
56771;DHT22;42641;59.794;17.616;2024-03-07T01:19:15;-2.20;99.90
56771;DHT22;42641;59.794;17.616;2024-03-07T01:21:41;-2.30;99.90
56771;DHT22;42641;59.794;17.616;2024-03-07T01:24:07;-2.30;99.90
56771;DHT22;42641;59.794;17.616;2024-03-07T01:26:34;-2.30;99.90
56771;DHT22;42641;59.794;17.616;2024-03-07T01:29:00;-2.30;99.90
56771;DHT22;42641;59.794;17.616;2024-03-07T01:31:27;-2.40;99.90
56771;DHT22;42641;59.794;17.616;2024-03-07T01:33:54;-2.40;99.90
56771;DHT22;42641;59.794;17.616;2024-03-07T01:36:20;-2.40;99.90
56771;DHT22;42641;59.794;17.616;2024-03-07T01:38:47;-2.40;99.90
56771;DHT22;42641;59.794;17.616;2024-03-07T01:41:13;-2.50;99.90
56771;DHT22;42641;59.794;17.616;2024-03-07T01:43:43;-2.50;99.90
56771;DHT22;42641;59.794;17.616;2024-03-07T01:46:10;-2.50;99.90
56771;DHT22;42641;59.794;17.616;2024-03-07T01:48:37;-2.50;99.90
56771;DHT22;42641;59.794;17.616;2024-03-07T01:51:04;-2.60;99.90
56771;DHT22;42641;59.794;17.616;2024-03-07T01:53:31;-2.60;99.90
56771;DHT22;42641;59.794;17.616;2024-03-07T01:55:59;-2.60;99.90
56771;DHT22;42641;59.794;17.616;2024-03-07T01:58:26;-2.60;99.90
56771;DHT22;42641;59.794;17.616;2024-03-07T02:00:55;-2.60;99.90
56771;DHT22;42641;59.794;17.616;2024-03-07T02:03:22;-2.60;99.90
56771;DHT22;42641;59.794;17.616;2024-03-07T02:05:48;-2.60;99.90
56771;DHT22;42641;59.794;17.616;2024-03-07T02:08:14;-2.60;99.90
56771;DHT22;42641;59.794;17.616;2024-03-07T02:10:41;-2.60;99.90
56771;DHT22;42641;59.794;17.616;2024-03-07T02:13:08;-2.60;99.90
56771;DHT22;42641;59.794;17.616;2024-03-07T02:15:34;-2.60;99.90
56771;DHT22;42641;59.794;17.616;2024-03-07T02:18:01;-2.60;99.90
56771;DHT22;42641;59.794;17.616;2024-03-07T02:20:27;-2.60;99.90
56771;DHT22;42641;59.794;17.616;2024-03-07T02:22:55;-2.60;99.90
56771;DHT22;42641;59.794;17.616;2024-03-07T02:25:21;-2.60;99.90
56771;DHT22;42641;59.794;17.616;2024-03-07T02:27:47;-2.60;99.90
56771;DHT22;42641;59.794;17.616;2024-03-07T02:30:14;-2.70;99.90
56771;DHT22;42641;59.794;17.616;2024-03-07T02:32:40;-2.60;99.90
56771;DHT22;42641;59.794;17.616;2024-03-07T02:35:07;-2.60;99.90
56771;DHT22;42641;59.794;17.616;2024-03-07T02:37:34;-2.60;99.90
56771;DHT22;42641;59.794;17.616;2024-03-07T02:40:01;-2.60;99.90
56771;DHT22;42641;59.794;17.616;2024-03-07T02:42:27;-2.50;99.90
56771;DHT22;42641;59.794;17.616;2024-03-07T02:44:53;-2.50;99.90
56771;DHT22;42641;59.794;17.616;2024-03-07T02:47:20;-2.50;99.90
56771;DHT22;42641;59.794;17.616;2024-03-07T02:49:49;-2.40;99.90
56771;DHT22;42641;59.794;17.616;2024-03-07T02:52:16;-2.40;99.90
56771;DHT22;42641;59.794;17.616;2024-03-07T02:54:43;-2.40;99.90
56771;DHT22;42641;59.794;17.616;2024-03-07T02:57:09;-2.40;99.90
56771;DHT22;42641;59.794;17.616;2024-03-07T02:59:37;-2.40;99.90
56771;DHT22;42641;59.794;17.616;2024-03-07T03:02:03;-2.40;99.90
56771;DHT22;42641;59.794;17.616;2024-03-07T03:04:30;-2.40;99.90
56771;DHT22;42641;59.794;17.616;2024-03-07T03:06:56;-2.40;99.90
56771;DHT22;42641;59.794;17.616;2024-03-07T03:09:23;-2.40;99.90
56771;DHT22;42641;59.794;17.616;2024-03-07T03:11:50;-2.40;99.90
56771;DHT22;42641;59.794;17.616;2024-03-07T03:14:17;-2.40;99.90
56771;DHT22;42641;59.794;17.616;2024-03-07T03:16:44;-2.40;99.90
56771;DHT22;42641;59.794;17.616;2024-03-07T03:19:11;-2.40;99.90
56771;DHT22;42641;59.794;17.616;2024-03-07T03:21:37;-2.40;99.90
56771;DHT22;42641;59.794;17.616;2024-03-07T03:24:04;-2.40;99.90
56771;DHT22;42641;59.794;17.616;2024-03-07T03:26:31;-2.40;99.90
56771;DHT22;42641;59.794;17.616;2024-03-07T03:28:58;-2.40;99.90
56771;DHT22;42641;59.794;17.616;2024-03-07T03:31:25;-2.40;99.90
56771;DHT22;42641;59.794;17.616;2024-03-07T03:33:51;-2.30;99.90
56771;DHT22;42641;59.794;17.616;2024-03-07T03:36:18;-2.30;99.90
56771;DHT22;42641;59.794;17.616;2024-03-07T03:38:45;-2.30;99.90
56771;DHT22;42641;59.794;17.616;2024-03-07T03:41:15;-2.30;99.90
56771;DHT22;42641;59.794;17.616;2024-03-07T03:43:43;-2.30;99.90
56771;DHT22;42641;59.794;17.616;2024-03-07T03:46:10;-2.30;99.90
56771;DHT22;42641;59.794;17.616;2024-03-07T03:48:40;-2.20;99.90
56771;DHT22;42641;59.794;17.616;2024-03-07T03:51:10;-2.30;99.90
56771;DHT22;42641;59.794;17.616;2024-03-07T03:53:39;-2.30;99.90
56771;DHT22;42641;59.794;17.616;2024-03-07T03:56:09;-2.30;99.90
56771;DHT22;42641;59.794;17.616;2024-03-07T03:58:39;-2.30;99.90
56771;DHT22;42641;59.794;17.616;2024-03-07T04:01:06;-2.30;99.90
56771;DHT22;42641;59.794;17.616;2024-03-07T04:03:34;-2.30;99.90
56771;DHT22;42641;59.794;17.616;2024-03-07T04:06:00;-2.30;99.90
56771;DHT22;42641;59.794;17.616;2024-03-07T04:08:26;-2.20;99.90
56771;DHT22;42641;59.794;17.616;2024-03-07T04:10:53;-2.20;99.90
56771;DHT22;42641;59.794;17.616;2024-03-07T04:13:19;-2.20;99.90
56771;DHT22;42641;59.794;17.616;2024-03-07T04:15:48;-2.20;99.90
56771;DHT22;42641;59.794;17.616;2024-03-07T04:18:14;-2.20;99.90
56771;DHT22;42641;59.794;17.616;2024-03-07T04:20:40;-2.20;99.90
56771;DHT22;42641;59.794;17.616;2024-03-07T04:23:10;-2.20;99.90
56771;DHT22;42641;59.794;17.616;2024-03-07T04:25:36;-2.20;99.90
56771;DHT22;42641;59.794;17.616;2024-03-07T04:28:03;-2.20;99.90
56771;DHT22;42641;59.794;17.616;2024-03-07T04:30:29;-2.20;99.90
56771;DHT22;42641;59.794;17.616;2024-03-07T04:32:55;-2.20;99.90
56771;DHT22;42641;59.794;17.616;2024-03-07T04:35:22;-2.20;99.90
56771;DHT22;42641;59.794;17.616;2024-03-07T04:37:48;-2.20;99.90
56771;DHT22;42641;59.794;17.616;2024-03-07T04:40:16;-2.20;99.90
56771;DHT22;42641;59.794;17.616;2024-03-07T04:42:47;-2.30;99.90
56771;DHT22;42641;59.794;17.616;2024-03-07T04:45:15;-2.30;99.90
56771;DHT22;42641;59.794;17.616;2024-03-07T04:47:42;-2.30;99.90
56771;DHT22;42641;59.794;17.616;2024-03-07T04:50:11;-2.40;99.90
56771;DHT22;42641;59.794;17.616;2024-03-07T04:52:38;-2.30;99.90
56771;DHT22;42641;59.794;17.616;2024-03-07T04:55:09;-2.30;99.90
56771;DHT22;42641;59.794;17.616;2024-03-07T04:57:37;-2.30;99.90
56771;DHT22;42641;59.794;17.616;2024-03-07T05:00:10;-2.30;99.90
56771;DHT22;42641;59.794;17.616;2024-03-07T05:02:44;-2.30;99.90
56771;DHT22;42641;59.794;17.616;2024-03-07T05:05:14;-2.40;99.90
56771;DHT22;42641;59.794;17.616;2024-03-07T05:07:42;-2.40;99.90
56771;DHT22;42641;59.794;17.616;2024-03-07T05:10:09;-2.40;99.90
56771;DHT22;42641;59.794;17.616;2024-03-07T05:12:36;-2.40;99.90
56771;DHT22;42641;59.794;17.616;2024-03-07T05:15:04;-2.40;99.90
56771;DHT22;42641;59.794;17.616;2024-03-07T05:17:31;-2.40;99.90
56771;DHT22;42641;59.794;17.616;2024-03-07T05:20:02;-2.40;99.90
56771;DHT22;42641;59.794;17.616;2024-03-07T05:22:30;-2.40;99.90
56771;DHT22;42641;59.794;17.616;2024-03-07T05:24:56;-2.40;99.90
56771;DHT22;42641;59.794;17.616;2024-03-07T05:27:24;-2.40;99.90
56771;DHT22;42641;59.794;17.616;2024-03-07T05:29:52;-2.40;99.90
56771;DHT22;42641;59.794;17.616;2024-03-07T05:32:24;-2.40;99.90
56771;DHT22;42641;59.794;17.616;2024-03-07T05:34:52;-2.40;99.90
56771;DHT22;42641;59.794;17.616;2024-03-07T05:37:22;-2.40;99.90
56771;DHT22;42641;59.794;17.616;2024-03-07T05:39:50;-2.40;99.90
56771;DHT22;42641;59.794;17.616;2024-03-07T05:42:16;-2.40;99.90
56771;DHT22;42641;59.794;17.616;2024-03-07T05:44:44;-2.40;99.90
56771;DHT22;42641;59.794;17.616;2024-03-07T05:47:11;-2.40;99.90
56771;DHT22;42641;59.794;17.616;2024-03-07T05:49:39;-2.40;99.90
56771;DHT22;42641;59.794;17.616;2024-03-07T05:52:06;-2.30;99.90
56771;DHT22;42641;59.794;17.616;2024-03-07T05:54:33;-2.30;99.90
56771;DHT22;42641;59.794;17.616;2024-03-07T05:57:00;-2.30;99.90
56771;DHT22;42641;59.794;17.616;2024-03-07T05:59:27;-2.20;99.90
56771;DHT22;42641;59.794;17.616;2024-03-07T06:01:59;-2.20;99.90
56771;DHT22;42641;59.794;17.616;2024-03-07T06:04:27;-2.10;99.90
56771;DHT22;42641;59.794;17.616;2024-03-07T06:06:53;-2.10;99.90
56771;DHT22;42641;59.794;17.616;2024-03-07T06:09:20;-2.10;99.90
56771;DHT22;42641;59.794;17.616;2024-03-07T06:11:52;-2.10;99.90
56771;DHT22;42641;59.794;17.616;2024-03-07T06:14:19;-2.10;99.90
56771;DHT22;42641;59.794;17.616;2024-03-07T06:16:46;-2.00;99.90
56771;DHT22;42641;59.794;17.616;2024-03-07T06:19:12;-2.00;99.90
56771;DHT22;42641;59.794;17.616;2024-03-07T06:21:40;-1.90;99.90
56771;DHT22;42641;59.794;17.616;2024-03-07T06:24:07;-1.80;99.90
56771;DHT22;42641;59.794;17.616;2024-03-07T06:26:36;-1.80;99.90
56771;DHT22;42641;59.794;17.616;2024-03-07T06:29:03;-1.80;99.90
56771;DHT22;42641;59.794;17.616;2024-03-07T06:31:33;-1.70;99.90
56771;DHT22;42641;59.794;17.616;2024-03-07T06:33:59;-1.60;99.90
56771;DHT22;42641;59.794;17.616;2024-03-07T06:36:25;-1.50;99.90
56771;DHT22;42641;59.794;17.616;2024-03-07T06:38:52;-1.50;99.90
56771;DHT22;42641;59.794;17.616;2024-03-07T06:41:18;-1.40;99.90
56771;DHT22;42641;59.794;17.616;2024-03-07T06:43:45;-1.30;99.90
56771;DHT22;42641;59.794;17.616;2024-03-07T06:46:11;-1.20;99.90
56771;DHT22;42641;59.794;17.616;2024-03-07T06:48:39;-1.10;99.90
56771;DHT22;42641;59.794;17.616;2024-03-07T06:51:07;-1.00;99.90
56771;DHT22;42641;59.794;17.616;2024-03-07T06:53:33;-0.90;99.90
56771;DHT22;42641;59.794;17.616;2024-03-07T06:56:00;-0.70;99.90
56771;DHT22;42641;59.794;17.616;2024-03-07T06:58:27;-0.60;99.90
56771;DHT22;42641;59.794;17.616;2024-03-07T07:00:54;-0.50;99.90
56771;DHT22;42641;59.794;17.616;2024-03-07T07:03:21;-0.40;99.90
56771;DHT22;42641;59.794;17.616;2024-03-07T07:05:48;-0.30;99.90
56771;DHT22;42641;59.794;17.616;2024-03-07T07:08:15;-0.30;99.90
56771;DHT22;42641;59.794;17.616;2024-03-07T07:10:42;-0.20;99.90
56771;DHT22;42641;59.794;17.616;2024-03-07T07:13:09;-0.10;99.90
56771;DHT22;42641;59.794;17.616;2024-03-07T07:15:36;0.00;99.90
56771;DHT22;42641;59.794;17.616;2024-03-07T07:18:03;0.10;99.90
56771;DHT22;42641;59.794;17.616;2024-03-07T07:20:30;0.20;99.90
56771;DHT22;42641;59.794;17.616;2024-03-07T07:22:56;0.30;99.90
56771;DHT22;42641;59.794;17.616;2024-03-07T07:25:25;0.40;99.90
56771;DHT22;42641;59.794;17.616;2024-03-07T07:27:53;0.40;99.90
56771;DHT22;42641;59.794;17.616;2024-03-07T07:30:21;0.50;99.90
56771;DHT22;42641;59.794;17.616;2024-03-07T07:32:53;0.60;99.90
56771;DHT22;42641;59.794;17.616;2024-03-07T07:35:23;0.70;99.90
56771;DHT22;42641;59.794;17.616;2024-03-07T07:37:51;0.80;99.90
56771;DHT22;42641;59.794;17.616;2024-03-07T07:40:21;0.90;99.90
56771;DHT22;42641;59.794;17.616;2024-03-07T07:42:50;1.00;99.90
56771;DHT22;42641;59.794;17.616;2024-03-07T07:45:18;1.10;99.90
56771;DHT22;42641;59.794;17.616;2024-03-07T07:47:47;1.20;99.90
56771;DHT22;42641;59.794;17.616;2024-03-07T07:50:16;1.40;99.90
56771;DHT22;42641;59.794;17.616;2024-03-07T07:52:47;1.50;99.90
56771;DHT22;42641;59.794;17.616;2024-03-07T07:55:14;1.50;99.90
56771;DHT22;42641;59.794;17.616;2024-03-07T07:57:43;1.50;99.90
56771;DHT22;42641;59.794;17.616;2024-03-07T08:00:12;1.70;99.90
56771;DHT22;42641;59.794;17.616;2024-03-07T08:02:38;1.80;99.90
56771;DHT22;42641;59.794;17.616;2024-03-07T08:05:04;1.80;99.90
56771;DHT22;42641;59.794;17.616;2024-03-07T08:07:31;1.90;99.90
56771;DHT22;42641;59.794;17.616;2024-03-07T08:09:57;2.00;99.90
56771;DHT22;42641;59.794;17.616;2024-03-07T08:12:24;2.00;99.90
56771;DHT22;42641;59.794;17.616;2024-03-07T08:14:50;2.10;99.90
56771;DHT22;42641;59.794;17.616;2024-03-07T08:17:17;2.10;99.90
56771;DHT22;42641;59.794;17.616;2024-03-07T08:19:43;2.30;99.90
56771;DHT22;42641;59.794;17.616;2024-03-07T08:22:09;2.30;99.90
56771;DHT22;42641;59.794;17.616;2024-03-07T08:24:36;2.40;99.90
56771;DHT22;42641;59.794;17.616;2024-03-07T08:27:02;2.50;99.90
56771;DHT22;42641;59.794;17.616;2024-03-07T08:29:29;2.70;99.90
56771;DHT22;42641;59.794;17.616;2024-03-07T08:31:56;2.80;99.90
56771;DHT22;42641;59.794;17.616;2024-03-07T08:34:23;2.90;99.90
56771;DHT22;42641;59.794;17.616;2024-03-07T08:36:49;3.00;99.90
56771;DHT22;42641;59.794;17.616;2024-03-07T08:39:15;3.10;99.90
56771;DHT22;42641;59.794;17.616;2024-03-07T08:41:41;3.10;99.90
56771;DHT22;42641;59.794;17.616;2024-03-07T08:44:10;3.10;99.90
56771;DHT22;42641;59.794;17.616;2024-03-07T08:46:37;3.10;99.90
56771;DHT22;42641;59.794;17.616;2024-03-07T08:49:03;3.20;99.90
56771;DHT22;42641;59.794;17.616;2024-03-07T08:51:31;3.40;99.90
56771;DHT22;42641;59.794;17.616;2024-03-07T08:53:57;3.30;99.90
56771;DHT22;42641;59.794;17.616;2024-03-07T08:56:25;3.30;99.90
56771;DHT22;42641;59.794;17.616;2024-03-07T08:58:51;3.40;99.90
56771;DHT22;42641;59.794;17.616;2024-03-07T09:01:17;3.60;99.90
56771;DHT22;42641;59.794;17.616;2024-03-07T09:03:44;3.80;99.90
56771;DHT22;42641;59.794;17.616;2024-03-07T09:06:10;3.90;99.90
56771;DHT22;42641;59.794;17.616;2024-03-07T09:08:39;4.00;99.90
56771;DHT22;42641;59.794;17.616;2024-03-07T09:11:06;4.10;99.90
56771;DHT22;42641;59.794;17.616;2024-03-07T09:13:33;4.30;99.90
56771;DHT22;42641;59.794;17.616;2024-03-07T09:15:59;4.50;99.90
56771;DHT22;42641;59.794;17.616;2024-03-07T09:18:28;4.60;99.90
56771;DHT22;42641;59.794;17.616;2024-03-07T09:20:55;4.80;99.90
56771;DHT22;42641;59.794;17.616;2024-03-07T09:23:21;4.90;99.90
56771;DHT22;42641;59.794;17.616;2024-03-07T09:25:47;5.00;99.90
56771;DHT22;42641;59.794;17.616;2024-03-07T09:28:14;5.10;99.90
56771;DHT22;42641;59.794;17.616;2024-03-07T09:30:41;5.20;99.90
56771;DHT22;42641;59.794;17.616;2024-03-07T09:33:07;5.20;99.90
56771;DHT22;42641;59.794;17.616;2024-03-07T09:35:36;5.30;99.90
56771;DHT22;42641;59.794;17.616;2024-03-07T09:38:04;5.50;99.90
56771;DHT22;42641;59.794;17.616;2024-03-07T09:40:30;5.60;99.90
56771;DHT22;42641;59.794;17.616;2024-03-07T09:42:58;5.50;99.90
56771;DHT22;42641;59.794;17.616;2024-03-07T09:45:29;5.60;99.90
56771;DHT22;42641;59.794;17.616;2024-03-07T09:47:57;5.70;99.90
56771;DHT22;42641;59.794;17.616;2024-03-07T09:50:26;5.80;99.90
56771;DHT22;42641;59.794;17.616;2024-03-07T09:52:55;5.80;99.90
56771;DHT22;42641;59.794;17.616;2024-03-07T09:55:22;5.80;99.90
56771;DHT22;42641;59.794;17.616;2024-03-07T09:57:50;5.80;99.90
56771;DHT22;42641;59.794;17.616;2024-03-07T10:00:17;5.90;99.90
56771;DHT22;42641;59.794;17.616;2024-03-07T10:02:54;5.80;99.90
56771;DHT22;42641;59.794;17.616;2024-03-07T10:05:23;5.80;99.90
56771;DHT22;42641;59.794;17.616;2024-03-07T10:07:53;6.00;99.90
56771;DHT22;42641;59.794;17.616;2024-03-07T10:10:22;6.20;99.90
56771;DHT22;42641;59.794;17.616;2024-03-07T10:12:49;6.30;99.90
56771;DHT22;42641;59.794;17.616;2024-03-07T10:15:16;6.40;99.90
56771;DHT22;42641;59.794;17.616;2024-03-07T10:17:44;6.40;99.90
56771;DHT22;42641;59.794;17.616;2024-03-07T10:20:18;6.50;99.90
56771;DHT22;42641;59.794;17.616;2024-03-07T10:22:46;6.50;99.90
56771;DHT22;42641;59.794;17.616;2024-03-07T10:25:13;6.50;99.90
56771;DHT22;42641;59.794;17.616;2024-03-07T10:27:39;6.50;99.90
56771;DHT22;42641;59.794;17.616;2024-03-07T10:30:06;6.50;99.90
56771;DHT22;42641;59.794;17.616;2024-03-07T10:32:36;6.60;99.90
56771;DHT22;42641;59.794;17.616;2024-03-07T10:35:03;6.60;99.90
56771;DHT22;42641;59.794;17.616;2024-03-07T10:37:30;6.70;99.90
56771;DHT22;42641;59.794;17.616;2024-03-07T10:39:56;6.80;99.90
56771;DHT22;42641;59.794;17.616;2024-03-07T10:42:27;6.90;99.90
56771;DHT22;42641;59.794;17.616;2024-03-07T10:45:00;6.90;99.90
56771;DHT22;42641;59.794;17.616;2024-03-07T10:47:31;7.10;99.90
56771;DHT22;42641;59.794;17.616;2024-03-07T10:50:12;7.20;99.90
56771;DHT22;42641;59.794;17.616;2024-03-07T10:58:14;7.60;99.90
56771;DHT22;42641;59.794;17.616;2024-03-07T11:00:45;7.60;99.90
56771;DHT22;42641;59.794;17.616;2024-03-07T11:03:14;7.60;99.90
56771;DHT22;42641;59.794;17.616;2024-03-07T11:05:40;7.60;99.90
56771;DHT22;42641;59.794;17.616;2024-03-07T11:08:10;7.70;99.90
56771;DHT22;42641;59.794;17.616;2024-03-07T11:10:39;7.80;99.90
56771;DHT22;42641;59.794;17.616;2024-03-07T11:13:08;7.80;99.90
56771;DHT22;42641;59.794;17.616;2024-03-07T11:15:43;7.90;99.90
56771;DHT22;42641;59.794;17.616;2024-03-07T11:18:12;8.00;99.90
56771;DHT22;42641;59.794;17.616;2024-03-07T11:20:40;8.10;99.90
56771;DHT22;42641;59.794;17.616;2024-03-07T11:23:26;8.20;99.90
56771;DHT22;42641;59.794;17.616;2024-03-07T11:26:04;8.50;99.90
56771;DHT22;42641;59.794;17.616;2024-03-07T11:28:38;8.90;99.90
56771;DHT22;42641;59.794;17.616;2024-03-07T11:31:15;9.80;99.90
56771;DHT22;42641;59.794;17.616;2024-03-07T11:33:42;10.90;99.90
56771;DHT22;42641;59.794;17.616;2024-03-07T11:36:10;11.70;99.90
56771;DHT22;42641;59.794;17.616;2024-03-07T11:38:49;12.30;99.90
56771;DHT22;42641;59.794;17.616;2024-03-07T11:41:19;12.60;99.90
56771;DHT22;42641;59.794;17.616;2024-03-07T11:43:46;12.70;99.90
56771;DHT22;42641;59.794;17.616;2024-03-07T11:46:12;12.80;99.90
56771;DHT22;42641;59.794;17.616;2024-03-07T11:48:43;13.00;99.90
56771;DHT22;42641;59.794;17.616;2024-03-07T11:51:13;13.10;99.90
56771;DHT22;42641;59.794;17.616;2024-03-07T11:53:39;13.30;99.90
56771;DHT22;42641;59.794;17.616;2024-03-07T11:56:07;13.50;99.90
56771;DHT22;42641;59.794;17.616;2024-03-07T11:58:38;13.60;99.90
56771;DHT22;42641;59.794;17.616;2024-03-07T12:01:08;13.70;99.90
56771;DHT22;42641;59.794;17.616;2024-03-07T12:03:37;13.70;99.90
56771;DHT22;42641;59.794;17.616;2024-03-07T12:06:03;13.80;99.90
56771;DHT22;42641;59.794;17.616;2024-03-07T12:08:30;13.80;99.90
56771;DHT22;42641;59.794;17.616;2024-03-07T12:10:58;14.00;99.70
56771;DHT22;42641;59.794;17.616;2024-03-07T12:13:25;14.00;99.70
56771;DHT22;42641;59.794;17.616;2024-03-07T12:15:53;13.50;99.90
56771;DHT22;42641;59.794;17.616;2024-03-07T12:18:21;13.20;99.90
56771;DHT22;42641;59.794;17.616;2024-03-07T12:20:49;13.10;99.90
56771;DHT22;42641;59.794;17.616;2024-03-07T12:23:22;12.90;99.90
56771;DHT22;42641;59.794;17.616;2024-03-07T12:26:03;13.00;99.90
56771;DHT22;42641;59.794;17.616;2024-03-07T12:28:30;13.20;99.90
56771;DHT22;42641;59.794;17.616;2024-03-07T12:30:59;13.20;99.90
56771;DHT22;42641;59.794;17.616;2024-03-07T12:33:29;13.30;99.90
56771;DHT22;42641;59.794;17.616;2024-03-07T12:35:57;13.30;99.90
56771;DHT22;42641;59.794;17.616;2024-03-07T12:38:32;13.40;99.90
56771;DHT22;42641;59.794;17.616;2024-03-07T12:41:06;13.70;99.90
56771;DHT22;42641;59.794;17.616;2024-03-07T12:43:33;13.80;99.90
56771;DHT22;42641;59.794;17.616;2024-03-07T12:46:00;13.60;99.90
56771;DHT22;42641;59.794;17.616;2024-03-07T12:48:27;13.40;99.90
56771;DHT22;42641;59.794;17.616;2024-03-07T12:50:53;13.10;99.90
56771;DHT22;42641;59.794;17.616;2024-03-07T12:53:21;13.10;99.90
56771;DHT22;42641;59.794;17.616;2024-03-07T12:55:48;13.00;99.90
56771;DHT22;42641;59.794;17.616;2024-03-07T12:58:15;12.70;99.90
56771;DHT22;42641;59.794;17.616;2024-03-07T13:00:42;12.50;99.90
56771;DHT22;42641;59.794;17.616;2024-03-07T13:03:09;12.70;99.90
56771;DHT22;42641;59.794;17.616;2024-03-07T13:05:37;13.00;99.90
56771;DHT22;42641;59.794;17.616;2024-03-07T13:08:07;13.10;99.90
56771;DHT22;42641;59.794;17.616;2024-03-07T13:10:43;12.70;99.90
56771;DHT22;42641;59.794;17.616;2024-03-07T13:13:09;12.40;99.90
56771;DHT22;42641;59.794;17.616;2024-03-07T13:15:40;12.30;99.90
56771;DHT22;42641;59.794;17.616;2024-03-07T13:18:09;12.40;99.90
56771;DHT22;42641;59.794;17.616;2024-03-07T13:20:35;12.70;99.90
56771;DHT22;42641;59.794;17.616;2024-03-07T13:23:02;12.90;99.90
56771;DHT22;42641;59.794;17.616;2024-03-07T13:25:29;13.10;99.90
56771;DHT22;42641;59.794;17.616;2024-03-07T13:28:10;13.20;99.80
56771;DHT22;42641;59.794;17.616;2024-03-07T13:30:40;13.50;99.90
56771;DHT22;42641;59.794;17.616;2024-03-07T13:33:07;13.60;99.40
56771;DHT22;42641;59.794;17.616;2024-03-07T13:35:38;13.70;99.20
56771;DHT22;42641;59.794;17.616;2024-03-07T13:38:05;14.10;98.60
56771;DHT22;42641;59.794;17.616;2024-03-07T13:40:32;14.70;97.90
56771;DHT22;42641;59.794;17.616;2024-03-07T13:43:04;14.90;97.90
56771;DHT22;42641;59.794;17.616;2024-03-07T13:45:33;15.00;97.40
56771;DHT22;42641;59.794;17.616;2024-03-07T13:48:06;15.20;97.10
56771;DHT22;42641;59.794;17.616;2024-03-07T13:50:34;14.70;96.90
56771;DHT22;42641;59.794;17.616;2024-03-07T13:53:00;14.30;97.50
56771;DHT22;42641;59.794;17.616;2024-03-07T14:01:21;13.60;98.20
56771;DHT22;42641;59.794;17.616;2024-03-07T14:15:54;12.30;99.50
56771;DHT22;42641;59.794;17.616;2024-03-07T14:32:27;13.00;99.10
56771;DHT22;42641;59.794;17.616;2024-03-07T14:40:31;12.80;98.60
56771;DHT22;42641;59.794;17.616;2024-03-07T14:43:01;12.70;98.60
56771;DHT22;42641;59.794;17.616;2024-03-07T14:45:39;12.70;98.20
56771;DHT22;42641;59.794;17.616;2024-03-07T14:48:06;12.40;98.80
56771;DHT22;42641;59.794;17.616;2024-03-07T14:50:37;12.10;99.40
56771;DHT22;42641;59.794;17.616;2024-03-07T14:53:04;12.10;99.60
56771;DHT22;42641;59.794;17.616;2024-03-07T14:55:31;11.90;99.40
56771;DHT22;42641;59.794;17.616;2024-03-07T14:57:58;11.70;99.10
56771;DHT22;42641;59.794;17.616;2024-03-07T15:00:27;11.40;99.60
56771;DHT22;42641;59.794;17.616;2024-03-07T15:02:55;11.30;99.80
56771;DHT22;42641;59.794;17.616;2024-03-07T15:05:25;11.20;99.90
56771;DHT22;42641;59.794;17.616;2024-03-07T15:07:53;11.10;99.80
56771;DHT22;42641;59.794;17.616;2024-03-07T15:10:25;10.90;99.90
56771;DHT22;42641;59.794;17.616;2024-03-07T15:12:53;10.70;99.90
56771;DHT22;42641;59.794;17.616;2024-03-07T15:15:19;10.40;99.90
56771;DHT22;42641;59.794;17.616;2024-03-07T15:17:46;10.20;99.90
56771;DHT22;42641;59.794;17.616;2024-03-07T15:20:13;10.00;99.90
56771;DHT22;42641;59.794;17.616;2024-03-07T15:22:53;9.80;99.90
56771;DHT22;42641;59.794;17.616;2024-03-07T15:25:20;9.80;99.90
56771;DHT22;42641;59.794;17.616;2024-03-07T15:27:52;9.70;99.90
56771;DHT22;42641;59.794;17.616;2024-03-07T15:30:24;9.50;99.90
56771;DHT22;42641;59.794;17.616;2024-03-07T15:33:03;9.40;99.90
56771;DHT22;42641;59.794;17.616;2024-03-07T15:35:30;9.20;99.90
56771;DHT22;42641;59.794;17.616;2024-03-07T15:37:57;9.10;99.90
56771;DHT22;42641;59.794;17.616;2024-03-07T15:40:24;9.00;99.90
56771;DHT22;42641;59.794;17.616;2024-03-07T15:42:51;8.90;99.90
56771;DHT22;42641;59.794;17.616;2024-03-07T15:45:21;8.90;99.90
56771;DHT22;42641;59.794;17.616;2024-03-07T15:47:49;8.80;99.90
56771;DHT22;42641;59.794;17.616;2024-03-07T15:50:16;8.70;99.90
56771;DHT22;42641;59.794;17.616;2024-03-07T15:52:47;8.60;99.90
56771;DHT22;42641;59.794;17.616;2024-03-07T15:55:14;8.60;99.90
56771;DHT22;42641;59.794;17.616;2024-03-07T15:57:49;8.60;99.90
56771;DHT22;42641;59.794;17.616;2024-03-07T16:00:17;8.50;99.90
56771;DHT22;42641;59.794;17.616;2024-03-07T16:03:03;8.50;99.90
56771;DHT22;42641;59.794;17.616;2024-03-07T16:05:34;8.20;99.90
56771;DHT22;42641;59.794;17.616;2024-03-07T16:08:02;8.20;99.90